createdAt,value
2018-08-09T00:00:30.259Z,101337.20
2018-08-09T00:03:54.887Z,101333.78
2018-08-09T00:07:19.410Z,101335.80
2018-08-09T00:10:43.834Z,101339.34
2018-08-09T00:14:08.308Z,101347.59
2018-08-09T00:17:32.763Z,101340.28
2018-08-09T00:20:57.611Z,101341.41
2018-08-09T00:24:22.087Z,101340.12
2018-08-09T00:27:46.485Z,101331.70
2018-08-09T00:31:10.899Z,101324.27
2018-08-09T00:34:35.323Z,101327.50
2018-08-09T00:37:59.793Z,101323.76
2018-08-09T00:41:24.226Z,101322.55
2018-08-09T00:44:49.057Z,101331.03
2018-08-09T00:48:13.521Z,101327.23
2018-08-09T00:51:38.280Z,101328.65
2018-08-09T00:55:02.744Z,101329.48
2018-08-09T00:58:27.207Z,101317.20
2018-08-09T01:01:51.662Z,101307.19
2018-08-09T01:05:16.088Z,101305.43
2018-08-09T01:08:44.590Z,101304.98
2018-08-09T01:12:09.038Z,101305.15
2018-08-09T01:15:33.531Z,101305.86
2018-08-09T01:18:57.987Z,101308.20
2018-08-09T01:22:22.515Z,101311.00
2018-08-09T01:25:46.919Z,101312.73
2018-08-09T01:29:11.504Z,101306.97
2018-08-09T01:32:35.924Z,101306.40
2018-08-09T01:36:00.550Z,101305.00
2018-08-09T01:39:24.938Z,101296.81
2018-08-09T01:43:06.229Z,101302.06
2018-08-09T01:46:30.825Z,101295.75
2018-08-09T01:49:55.267Z,101283.64
2018-08-09T01:53:19.718Z,101280.05
2018-08-09T01:56:44.172Z,101273.23
2018-08-09T02:00:08.603Z,101272.56
2018-08-09T02:03:33.039Z,101267.17
2018-08-09T02:06:57.436Z,101259.64
2018-08-09T02:10:21.880Z,101258.27
2018-08-09T02:17:21.829Z,101248.66
2018-08-09T02:20:46.226Z,101250.98
2018-08-09T02:24:10.689Z,101253.87
2018-08-09T02:27:35.124Z,101250.51
2018-08-09T02:30:59.873Z,101241.30
2018-08-09T02:34:24.329Z,101231.30
2018-08-09T02:37:48.782Z,101225.91
2018-08-09T02:41:13.194Z,101216.97
2018-08-09T02:44:37.713Z,101224.55
2018-08-09T02:48:02.203Z,101228.30
2018-08-09T02:51:26.934Z,101223.53
2018-08-09T02:54:51.394Z,101217.23
2018-08-09T02:58:15.807Z,101210.03
2018-08-09T03:01:40.222Z,101195.19
2018-08-09T03:05:05.081Z,101201.14
2018-08-09T03:08:29.511Z,101204.41
2018-08-09T03:11:53.928Z,101214.77
2018-08-09T03:15:18.535Z,101222.09
2018-08-09T03:18:42.930Z,101223.71
2018-08-09T03:22:07.419Z,101230.39
2018-08-09T03:25:31.842Z,101231.19
2018-08-09T03:28:56.263Z,101223.64
2018-08-09T03:32:20.750Z,101199.04
2018-08-09T03:35:45.172Z,101191.22
2018-08-09T03:39:11.203Z,101187.48
2018-08-09T03:42:35.593Z,101193.08
2018-08-09T03:46:00.023Z,101194.98
2018-08-09T03:49:24.613Z,101201.39
2018-08-09T03:52:49.031Z,101197.22
2018-08-09T03:56:13.451Z,101198.14
2018-08-09T03:59:37.941Z,101200.52
2018-08-09T04:03:02.347Z,101210.67
2018-08-09T04:06:26.760Z,101204.16
2018-08-09T04:09:51.173Z,101195.65
2018-08-09T04:13:15.660Z,101194.96
2018-08-09T04:16:40.162Z,101199.13
2018-08-09T04:20:05.217Z,101202.96
2018-08-09T04:23:29.662Z,101211.94
2018-08-09T04:26:54.083Z,101214.38
2018-08-09T04:30:18.516Z,101216.09
2018-08-09T04:33:49.742Z,101207.95
2018-08-09T04:37:14.165Z,101218.00
2018-08-09T04:40:38.599Z,101219.84
2018-08-09T04:44:02.983Z,101216.13
2018-08-09T04:47:27.371Z,101222.47
2018-08-09T04:50:51.821Z,101217.05
2018-08-09T04:54:16.239Z,101210.55
2018-08-09T04:57:40.761Z,101206.63
2018-08-09T05:01:05.307Z,101205.49
2018-08-09T05:04:29.797Z,101186.88
2018-08-09T05:07:54.311Z,101186.78
2018-08-09T05:11:19.078Z,101188.94
2018-08-09T05:14:43.503Z,101186.88
2018-08-09T05:18:08.197Z,101177.31
2018-08-09T05:21:32.625Z,101173.88
2018-08-09T05:24:57.041Z,101171.88
2018-08-09T05:28:21.497Z,101170.22
2018-08-09T05:31:45.940Z,101169.40
2018-08-09T05:35:10.462Z,101166.16
2018-08-09T05:38:34.929Z,101165.83
2018-08-09T05:41:59.368Z,101175.28
2018-08-09T05:45:23.795Z,101167.38
2018-08-09T05:48:48.309Z,101147.88
2018-08-09T05:52:12.729Z,101147.33
2018-08-09T05:55:37.127Z,101144.50
2018-08-09T05:59:01.549Z,101129.96
2018-08-09T06:02:25.954Z,101136.70
2018-08-09T06:05:50.422Z,101137.86
2018-08-09T06:09:14.884Z,101141.58
2018-08-09T06:12:39.311Z,101141.67
2018-08-09T06:16:03.820Z,101142.06
2018-08-09T06:19:28.324Z,101136.41
2018-08-09T06:22:52.814Z,101123.09
2018-08-09T06:26:17.265Z,101120.14
2018-08-09T06:29:42.301Z,101119.03
2018-08-09T06:33:07.393Z,101111.69
2018-08-09T06:36:31.863Z,101112.80
2018-08-09T06:39:56.338Z,101104.86
2018-08-09T06:43:20.769Z,101095.08
2018-08-09T06:46:45.183Z,101104.78
2018-08-09T06:50:10.849Z,101089.56
2018-08-09T06:53:35.245Z,101081.30
2018-08-09T06:56:59.659Z,101083.11
2018-08-09T07:00:24.145Z,101078.81
2018-08-09T07:03:48.578Z,101078.53
2018-08-09T07:07:12.960Z,101072.73
2018-08-09T07:10:37.397Z,101071.25
2018-08-09T07:14:01.822Z,101072.30
2018-08-09T07:17:26.261Z,101070.96
2018-08-09T07:20:50.723Z,101077.27
2018-08-09T07:24:15.230Z,101075.03
2018-08-09T07:27:39.731Z,101072.03
2018-08-09T07:31:04.248Z,101078.34
2018-08-09T07:34:28.872Z,101073.47
2018-08-09T07:37:53.271Z,101070.84
2018-08-09T07:41:17.769Z,101069.41
2018-08-09T07:44:42.205Z,101075.68
2018-08-09T07:48:06.667Z,101068.02
2018-08-09T07:51:31.218Z,101068.48
2018-08-09T07:54:55.659Z,101061.06
2018-08-09T07:58:20.089Z,101056.53
2018-08-09T08:01:46.813Z,101038.53
2018-08-09T08:05:11.316Z,101023.32
2018-08-09T08:08:35.742Z,101012.63
2018-08-09T08:12:00.224Z,101002.10
2018-08-09T08:15:24.711Z,100984.42
2018-08-09T08:18:49.133Z,100984.35
2018-08-09T08:22:13.582Z,100984.03
2018-08-09T08:25:38.361Z,100980.49
2018-08-09T08:29:02.812Z,100974.30
2018-08-09T08:32:27.248Z,100959.83
2018-08-09T08:35:51.660Z,100958.45
2018-08-09T08:39:16.108Z,100950.19
2018-08-09T08:42:40.687Z,100957.95
2018-08-09T08:46:05.377Z,100968.33
2018-08-09T08:49:29.832Z,100967.31
2018-08-09T08:52:54.315Z,100959.80
2018-08-09T08:56:18.824Z,100947.88
2018-08-09T08:59:43.266Z,100949.83
2018-08-09T09:03:08.018Z,100921.59
2018-08-09T09:06:32.498Z,100923.20
2018-08-09T09:09:56.931Z,100921.53
2018-08-09T09:13:21.924Z,100914.58
2018-08-09T09:16:46.341Z,100903.09
2018-08-09T09:20:13.849Z,100897.75
2018-08-09T09:23:38.342Z,100906.47
2018-08-09T09:27:02.871Z,100900.27
2018-08-09T09:30:27.250Z,100903.62
2018-08-09T09:33:51.654Z,100880.26
2018-08-09T09:37:16.065Z,100881.22
2018-08-09T09:40:40.512Z,100883.40
2018-08-09T09:44:04.955Z,100880.14
2018-08-09T09:47:29.544Z,100890.62
2018-08-09T09:50:53.970Z,100876.36
2018-08-09T09:54:18.367Z,100880.41
2018-08-09T09:57:42.807Z,100856.67
2018-08-09T10:01:12.443Z,100829.80
2018-08-09T10:04:36.892Z,100805.19
2018-08-09T10:08:01.525Z,100782.95
2018-08-09T10:11:25.964Z,100778.91
2018-08-09T10:14:50.500Z,100764.55
2018-08-09T10:18:14.906Z,100763.21
2018-08-09T10:21:39.330Z,100756.06
2018-08-09T10:25:03.777Z,100746.66
2018-08-09T10:28:28.229Z,100741.16
2018-08-09T10:31:52.650Z,100734.16
2018-08-09T10:35:17.092Z,100718.19
2018-08-09T10:38:41.549Z,100710.96
2018-08-09T10:42:05.966Z,100700.36
2018-08-09T10:45:30.385Z,100691.14
2018-08-09T10:48:54.794Z,100679.91
2018-08-09T10:52:19.220Z,100662.91
2018-08-09T10:55:43.656Z,100653.56
2018-08-09T10:59:08.381Z,100642.36
2018-08-09T11:02:32.815Z,100630.42
2018-08-09T11:05:57.224Z,100620.20
2018-08-09T11:09:21.649Z,100602.30
2018-08-09T11:12:46.071Z,100597.06
2018-08-09T11:16:10.914Z,100592.38
2018-08-09T11:19:35.330Z,100576.64
2018-08-09T11:22:59.722Z,100557.87
2018-08-09T11:26:24.130Z,100560.84
2018-08-09T11:29:48.597Z,100556.30
2018-08-09T11:33:13.031Z,100543.49
2018-08-09T11:36:37.558Z,100531.23
2018-08-09T11:40:02.055Z,100519.52
2018-08-09T11:43:26.462Z,100528.49
2018-08-09T11:46:50.896Z,100538.66
2018-08-09T11:50:15.337Z,100534.08
2018-08-09T11:53:39.789Z,100521.61
2018-08-09T11:57:04.326Z,100515.86
2018-08-09T12:00:28.683Z,100506.25
2018-08-09T12:03:53.177Z,100506.34
2018-08-09T12:07:17.625Z,100493.52
2018-08-09T12:10:42.029Z,100484.56
2018-08-09T12:14:07.118Z,100475.64
2018-08-09T12:17:31.573Z,100451.25
2018-08-09T12:20:56.038Z,100443.75
2018-08-09T12:24:20.528Z,100445.08
2018-08-09T12:27:45.014Z,100456.69
2018-08-09T12:31:09.523Z,100451.38
2018-08-09T12:34:33.936Z,100464.53
2018-08-09T12:37:58.390Z,100459.41
2018-08-09T12:41:22.877Z,100447.55
2018-08-09T12:44:47.310Z,100440.95
2018-08-09T12:48:11.759Z,100421.59
2018-08-09T12:51:36.227Z,100419.31
2018-08-09T12:55:00.686Z,100412.42
2018-08-09T12:58:25.174Z,100404.30
2018-08-09T13:01:49.657Z,100409.49
2018-08-09T13:05:14.063Z,100416.59
2018-08-09T13:08:38.514Z,100427.66
2018-08-09T13:12:03.005Z,100414.02
2018-08-09T13:15:27.663Z,100414.52
2018-08-09T13:18:52.115Z,100408.64
2018-08-09T13:22:16.738Z,100404.56
2018-08-09T13:25:41.210Z,100390.92
2018-08-09T13:29:05.875Z,100386.91
2018-08-09T13:32:30.445Z,100382.53
2018-08-09T13:35:54.870Z,100388.76
2018-08-09T13:39:19.337Z,100403.72
2018-08-09T13:42:43.821Z,100421.11
2018-08-09T13:46:09.250Z,100435.46
2018-08-09T13:49:34.054Z,100439.36
2018-08-09T13:52:58.578Z,100458.00
2018-08-09T13:56:29.678Z,100451.16
2018-08-09T13:59:54.155Z,100451.27
2018-08-09T14:03:19.027Z,100448.05
2018-08-09T14:06:43.555Z,100463.00
2018-08-09T14:10:09.204Z,100462.27
2018-08-09T14:13:33.827Z,100468.23
2018-08-09T14:16:58.987Z,100477.53
2018-08-09T14:20:23.463Z,100459.36
2018-08-09T14:23:47.984Z,100454.63
2018-08-09T14:27:12.414Z,100473.08
2018-08-09T14:30:36.984Z,100490.89
2018-08-09T14:34:01.595Z,100505.70
2018-08-09T14:37:26.114Z,100524.25
2018-08-09T14:40:50.549Z,100520.22
2018-08-09T14:44:15.056Z,100539.30
2018-08-09T14:47:39.682Z,100528.50
2018-08-09T14:51:04.144Z,100538.20
2018-08-09T14:54:28.646Z,100534.80
2018-08-09T14:57:53.081Z,100561.38
2018-08-09T15:01:17.831Z,100562.86
2018-08-09T15:04:42.268Z,100554.56
2018-08-09T15:08:07.152Z,100552.06
2018-08-09T15:11:31.568Z,100554.94
2018-08-09T15:14:56.133Z,100572.30
2018-08-09T15:18:20.628Z,100568.14
2018-08-09T15:21:45.249Z,100571.45
2018-08-09T15:25:11.586Z,100565.16
2018-08-09T15:28:36.406Z,100561.16
2018-08-09T15:32:00.913Z,100549.77
2018-08-09T15:35:25.364Z,100545.52
2018-08-09T15:38:49.779Z,100542.82
2018-08-09T15:42:14.270Z,100541.70
2018-08-09T15:45:38.734Z,100540.55
2018-08-09T15:49:03.212Z,100541.81
2018-08-09T15:52:27.709Z,100530.20
2018-08-09T15:55:52.227Z,100531.22
2018-08-09T15:59:16.706Z,100531.53
2018-08-09T16:02:41.218Z,100529.23
2018-08-09T16:06:05.641Z,100540.59
2018-08-09T16:09:30.030Z,100520.75
2018-08-09T16:12:54.501Z,100518.61
2018-08-09T16:16:19.235Z,100531.13
2018-08-09T16:19:43.623Z,100522.92
2018-08-09T16:23:08.315Z,100528.65
2018-08-09T16:26:32.903Z,100513.45
2018-08-09T16:29:57.382Z,100520.61
2018-08-09T16:33:21.865Z,100526.08
2018-08-09T16:36:46.308Z,100517.09
2018-08-09T16:40:13.668Z,100519.77
2018-08-09T16:43:38.109Z,100509.56
2018-08-09T16:47:02.605Z,100502.23
2018-08-09T16:50:27.208Z,100506.03
2018-08-09T16:53:51.710Z,100479.06
2018-08-09T16:57:16.376Z,100503.64
2018-08-09T17:00:40.848Z,100491.89
2018-08-09T17:04:05.283Z,100491.95
2018-08-09T17:07:29.714Z,100485.29
2018-08-09T17:10:54.164Z,100486.06
2018-08-09T17:14:18.618Z,100498.44
2018-08-09T17:17:43.137Z,100507.48
2018-08-09T17:21:07.948Z,100525.57
2018-08-09T17:24:32.528Z,100544.14
2018-08-09T17:27:57.054Z,100517.02
2018-08-09T17:31:21.487Z,100523.80
2018-08-09T17:34:47.235Z,100546.89
2018-08-09T17:38:11.739Z,100567.09
2018-08-09T17:41:39.014Z,100588.04
2018-08-09T17:45:06.267Z,100604.48
2018-08-09T17:48:31.140Z,100624.65
2018-08-09T17:51:55.760Z,100622.31
2018-08-09T17:55:20.613Z,100600.27
2018-08-09T17:58:46.061Z,100634.01
2018-08-09T18:02:11.807Z,100663.65
2018-08-09T18:05:37.885Z,100655.61
2018-08-09T18:09:03.352Z,100680.27
2018-08-09T18:12:27.955Z,100658.72
2018-08-09T18:15:54.541Z,100668.95
2018-08-09T18:19:20.065Z,100698.28
2018-08-09T18:22:45.865Z,100676.59
2018-08-09T18:26:10.765Z,100691.34
2018-08-09T18:29:35.350Z,100689.29
2018-08-09T18:32:59.916Z,100698.58
2018-08-09T18:36:24.610Z,100699.88
2018-08-09T18:39:50.414Z,100719.02
2018-08-09T18:43:15.549Z,100753.96
2018-08-09T18:46:40.228Z,100736.59
2018-08-09T18:54:07.958Z,100744.50
2018-08-09T18:57:32.619Z,100752.98
2018-08-09T19:00:57.204Z,100761.84
2018-08-09T19:04:28.125Z,100760.23
2018-08-09T19:07:54.260Z,100767.58
2018-08-09T19:11:19.833Z,100782.34
2018-08-09T19:14:44.533Z,100788.11
2018-08-09T19:18:09.881Z,100796.42
2018-08-09T19:21:35.356Z,100813.95
2018-08-09T19:25:01.446Z,100810.02
2018-08-09T19:28:26.416Z,100806.26
2018-08-09T19:31:52.475Z,100824.95
2018-08-09T19:35:19.402Z,100803.88
2018-08-09T19:46:54.900Z,100811.96
2018-08-09T19:50:21.622Z,100827.41
2018-08-09T19:53:46.642Z,100828.45
2018-08-09T19:57:13.088Z,100823.14
2018-08-09T20:00:38.017Z,100834.44
2018-08-09T20:04:02.961Z,100838.22
2018-08-09T20:07:29.206Z,100835.47
2018-08-09T20:10:54.733Z,100834.46
2018-08-09T20:14:19.659Z,100868.33
2018-08-09T20:17:45.687Z,100896.52
2018-08-09T20:21:11.680Z,100901.48
2018-08-09T20:24:37.468Z,100884.04
2018-08-09T20:28:02.391Z,100899.08
2018-08-09T20:31:27.388Z,100922.51
2018-08-09T20:34:52.526Z,100919.77
2018-08-09T20:38:17.198Z,100908.94
2018-08-09T20:41:42.501Z,100917.45
2018-08-09T20:45:08.766Z,100935.97
2018-08-09T20:48:33.244Z,100935.08
2018-08-09T20:51:57.712Z,100955.19
2018-08-09T20:55:22.196Z,100974.98
2018-08-09T20:58:46.698Z,100980.09
2018-08-09T21:02:11.341Z,100992.49
2018-08-09T21:05:38.016Z,101011.77
2018-08-09T21:09:02.606Z,101008.68
2018-08-09T21:12:32.071Z,101029.08
2018-08-09T21:15:56.559Z,101034.73
2018-08-09T21:19:21.018Z,101025.44
2018-08-09T21:22:47.027Z,101049.67
2018-08-09T21:26:11.548Z,101050.02
2018-08-09T21:29:36.179Z,101059.47
2018-08-09T21:33:00.711Z,101071.25
2018-08-09T21:36:25.149Z,101097.69
2018-08-09T21:39:49.615Z,101080.65
2018-08-09T21:43:14.094Z,101086.86
2018-08-09T21:46:38.526Z,101097.66
2018-08-09T21:50:02.998Z,101119.13
2018-08-09T21:53:27.485Z,101129.95
2018-08-09T21:56:52.045Z,101143.89
2018-08-09T22:00:48.584Z,101189.25
2018-08-09T22:04:13.037Z,101161.36
2018-08-09T22:07:42.707Z,101161.31
2018-08-09T22:11:13.351Z,101171.06
2018-08-09T22:14:43.702Z,101189.17
2018-08-09T22:19:12.033Z,101201.66
2018-08-09T22:22:38.346Z,101207.53
2018-08-09T22:26:02.779Z,101216.05
2018-08-09T22:29:27.205Z,101225.96
2018-08-09T22:32:51.877Z,101245.47
2018-08-09T22:36:16.563Z,101250.87
2018-08-09T22:39:41.069Z,101261.42
2018-08-09T22:43:05.563Z,101280.72
2018-08-09T22:46:30.055Z,101314.59
2018-08-09T22:49:54.531Z,101288.03
2018-08-09T22:53:19.156Z,101307.19
2018-08-09T22:56:43.568Z,101308.05
2018-08-09T23:00:16.795Z,101321.12
2018-08-09T23:03:41.241Z,101326.02
2018-08-09T23:07:05.954Z,101339.00
2018-08-09T23:10:30.416Z,101348.86
2018-08-09T23:13:54.868Z,101356.67
2018-08-09T23:17:19.407Z,101367.64
2018-08-09T23:20:43.990Z,101376.39
2018-08-09T23:24:08.496Z,101366.84
2018-08-09T23:27:33.279Z,101390.59
2018-08-09T23:30:57.772Z,101399.02
2018-08-09T23:34:22.221Z,101406.83
2018-08-09T23:37:46.861Z,101406.73
2018-08-09T23:41:11.408Z,101417.45
2018-08-09T23:44:35.886Z,101425.04
2018-08-09T23:48:00.406Z,101429.91
2018-08-09T23:51:31.714Z,101437.39
2018-08-09T23:54:56.355Z,101433.17
2018-08-09T23:58:20.824Z,101436.16
